createdAt,value
2023-01-28T00:01:04.152Z,15.7958984375
2023-01-28T00:11:04.123Z,15.7958984375
2023-01-28T00:21:03.964Z,15.7958984375
2023-01-28T00:31:03.997Z,15.90576171875
2023-01-28T00:41:03.842Z,15.90576171875
2023-01-28T00:51:03.791Z,15.90576171875
2023-01-28T01:01:03.698Z,16.00341796875
2023-01-28T01:11:03.630Z,15.90576171875
2023-01-28T01:21:03.592Z,15.7958984375
2023-01-28T01:31:03.580Z,15.7958984375
2023-01-28T01:41:03.377Z,15.7958984375
2023-01-28T01:51:03.349Z,15.7958984375
2023-01-28T02:01:03.313Z,15.90576171875
2023-01-28T02:11:03.191Z,16.00341796875
2023-01-28T02:21:03.139Z,16.00341796875
2023-01-28T02:31:03.263Z,16.10107421875
2023-01-28T02:41:02.982Z,16.10107421875
2023-01-28T02:51:02.996Z,16.19873046875
2023-01-28T03:01:02.938Z,15.90576171875
2023-01-28T03:11:02.758Z,15.90576171875
2023-01-28T03:21:02.820Z,16.00341796875
2023-01-28T03:31:02.794Z,15.90576171875
2023-01-28T03:41:02.666Z,15.7958984375
2023-01-28T03:51:02.514Z,15.90576171875
2023-01-28T04:01:02.379Z,15.90576171875
2023-01-28T04:11:02.492Z,16.00341796875
2023-01-28T04:21:02.221Z,15.6982421875
2023-01-28T04:31:02.303Z,15.7958984375
2023-01-28T04:41:02.103Z,15.7958984375
2023-01-28T04:51:02.263Z,15.6982421875
2023-01-28T05:01:02.126Z,15.6005859375
2023-01-28T05:11:02.063Z,15.7958984375
2023-01-28T05:21:01.841Z,15.7958984375
2023-01-28T05:31:01.977Z,15.6005859375
2023-01-28T05:41:01.657Z,15.6982421875
2023-01-28T05:51:01.704Z,15.6982421875
2023-01-28T06:01:01.557Z,15.7958984375
2023-01-28T06:11:01.684Z,15.6982421875
2023-01-28T06:21:01.471Z,15.7958984375
2023-01-28T06:31:01.369Z,15.7958984375
2023-01-28T06:41:01.259Z,15.7958984375
2023-01-28T06:51:01.181Z,15.90576171875
2023-01-28T07:01:01.125Z,15.7958984375
2023-01-28T07:11:01.066Z,15.7958984375
2023-01-28T07:21:01.066Z,15.7958984375
2023-01-28T07:31:01.108Z,15.7958984375
2023-01-28T07:41:00.925Z,15.6982421875
2023-01-28T07:51:00.929Z,15.6982421875
2023-01-28T08:01:00.757Z,15.6982421875
2023-01-28T08:11:00.706Z,15.7958984375
2023-01-28T08:21:00.578Z,15.7958984375
2023-01-28T08:31:00.576Z,15.90576171875
2023-01-28T08:41:00.397Z,16.00341796875
2023-01-28T08:51:00.399Z,16.00341796875
2023-01-28T09:01:00.275Z,16.10107421875
2023-01-28T09:11:00.168Z,16.10107421875
2023-01-28T09:21:00.282Z,16.19873046875
2023-01-28T09:31:00.172Z,16.29638671875
2023-01-28T09:41:00.018Z,16.19873046875
2023-01-28T09:50:59.875Z,16.19873046875
2023-01-28T10:00:59.881Z,16.19873046875
2023-01-28T10:10:59.737Z,16.19873046875
2023-01-28T10:20:59.670Z,16.19873046875
2023-01-28T10:30:59.674Z,16.29638671875
2023-01-28T10:40:59.530Z,16.29638671875
2023-01-28T10:50:59.440Z,16.39404296875
2023-01-28T11:00:59.379Z,16.39404296875
2023-01-28T11:10:59.312Z,16.69921875
2023-01-28T11:20:59.174Z,16.796875
2023-01-28T11:31:00.580Z,16.69921875
2023-01-28T11:40:59.078Z,16.69921875
2023-01-28T11:50:59.149Z,16.796875
2023-01-28T12:00:58.925Z,16.89453125
2023-01-28T12:10:58.890Z,17.00439453125
2023-01-28T12:20:58.736Z,17.00439453125
2023-01-28T12:30:58.770Z,16.89453125
2023-01-28T12:40:58.812Z,16.89453125
2023-01-28T12:50:58.939Z,16.89453125
2023-01-28T13:00:58.620Z,16.796875
2023-01-28T13:10:58.527Z,16.796875
2023-01-28T13:20:58.330Z,16.796875
2023-01-28T13:30:58.359Z,16.796875
2023-01-28T13:40:58.230Z,16.796875
2023-01-28T13:50:58.095Z,16.796875
2023-01-28T14:00:58.056Z,17.10205078125
2023-01-28T14:10:57.962Z,17.10205078125
2023-01-28T14:20:57.910Z,17.00439453125
2023-01-28T14:30:57.980Z,17.00439453125
2023-01-28T14:40:57.722Z,17.00439453125
2023-01-28T14:50:57.670Z,17.10205078125
2023-01-28T15:00:57.567Z,17.00439453125
2023-01-28T15:10:57.498Z,17.00439453125
2023-01-28T15:20:57.437Z,17.00439453125
2023-01-28T15:30:57.477Z,17.00439453125
2023-01-28T15:40:57.289Z,17.00439453125
2023-01-28T15:50:57.234Z,16.89453125
2023-01-28T16:00:57.239Z,16.89453125
2023-01-28T16:10:57.080Z,16.796875
2023-01-28T16:20:57.029Z,16.69921875
2023-01-28T16:30:56.931Z,16.6015625
2023-01-28T16:40:56.848Z,16.6015625
2023-01-28T16:50:56.819Z,16.6015625
2023-01-28T17:00:56.732Z,16.6015625
2023-01-28T17:10:56.928Z,16.6015625
2023-01-28T17:20:56.568Z,16.6015625
2023-01-28T17:30:56.507Z,16.69921875
2023-01-28T17:40:56.432Z,16.69921875
2023-01-28T17:50:56.337Z,16.89453125
2023-01-28T18:00:56.283Z,16.89453125
2023-01-28T18:10:56.222Z,16.89453125
2023-01-28T18:20:56.118Z,17.00439453125
2023-01-28T18:30:56.099Z,17.10205078125
2023-01-28T18:40:56.109Z,17.00439453125
2023-01-28T18:50:55.909Z,17.00439453125
2023-01-28T19:00:55.898Z,16.89453125
2023-01-28T19:10:55.795Z,17.00439453125
2023-01-28T19:20:55.699Z,17.00439453125
2023-01-28T19:30:55.673Z,16.89453125
2023-01-28T19:40:55.677Z,17.00439453125
2023-01-28T19:50:55.816Z,17.29736328125
2023-01-28T19:52:50.664Z,17.10205078125
2023-01-28T20:02:50.329Z,17.10205078125
2023-01-28T20:12:50.192Z,17.19970703125
2023-01-28T20:22:50.115Z,17.29736328125
2023-01-28T20:32:50.087Z,17.19970703125
2023-01-28T20:42:49.972Z,17.19970703125
2023-01-28T20:52:49.940Z,17.10205078125
2023-01-28T21:02:49.934Z,17.19970703125
2023-01-28T21:12:49.793Z,17.39501953125
2023-01-28T21:22:49.753Z,17.5048828125
2023-01-28T21:32:49.686Z,17.39501953125
2023-01-28T21:42:49.595Z,18.10302734375
2023-01-28T21:52:49.488Z,18.20068359375
2023-01-28T22:02:49.471Z,18.00537109375
2023-01-28T22:12:49.367Z,18.505859375
2023-01-28T22:22:49.304Z,18.39599609375
2023-01-28T22:32:49.210Z,18.994140625
2023-01-28T22:42:49.163Z,18.896484375
2023-01-28T22:52:49.085Z,18.798828125
2023-01-28T23:02:49.242Z,18.798828125
2023-01-28T23:12:48.927Z,19.10400390625
2023-01-28T23:22:48.945Z,20.39794921875
2023-01-28T23:32:48.810Z,20.99609375
2023-01-28T23:42:48.708Z,20.80078125
2023-01-28T23:52:48.632Z,20.60546875
